Tawakoni's Hourly Summary for Tuesday, July 10, 2018
Hour Temp
(f)
RH
(%)
Solar Rad.
(MJ/m2)
Rainfall
(in)
Wind
(mph)
7/10/2018 12:00 AM 73 93 0 0 0
7/10/2018 1:00 AM 73 94 0 0 0
7/10/2018 2:00 AM 72 94 0 0 0.6
7/10/2018 3:00 AM 72 95 0 0 0
7/10/2018 4:00 AM 73 94 0 0 2.98
7/10/2018 5:00 AM 72 93 0 0.01 3.75
7/10/2018 6:00 AM 72 94 0 0.16 2.98
7/10/2018 7:00 AM 72 95 0.02 0.19 3.35
7/10/2018 8:00 AM 72 94 0.17 0.13 3.38
7/10/2018 9:00 AM 74 81 0.9 0.07 3.72
7/10/2018 10:00 AM 77 76 1.19 0.02 4.54
7/10/2018 11:00 AM 80 68 2.11 0 4.82
7/10/2018 12:00 PM 82 59 2.52 0 3.77
7/10/2018 1:00 PM 86 52 2.93 0 2.74
7/10/2018 2:00 PM 89 44 2.85 0 2.8
7/10/2018 3:00 PM 86 49 1 0 6.05
7/10/2018 4:00 PM 82 59 0.81 0 7.78
7/10/2018 5:00 PM 85 51 1.69 0 6.64
7/10/2018 6:00 PM 87 48 1.39 0 6.7
7/10/2018 7:00 PM 84 58 0.44 0 4.39
7/10/2018 8:00 PM 84 58 0.25 0 2.84
7/10/2018 9:00 PM 81 62 0.04 0 0.88
7/10/2018 10:00 PM 76 78 0 0 0
7/10/2018 11:00 PM 75 85 0 0 0
Data Summary 78 73 18.31 0.58 3.11